Kornett — CQEJ — position and weather

sailwx.info

Track history (hours):
 
Tides and Currents Weather Stations Pressure Air Temp Water Temp Dewpoint Dewpoint Depression Visibility Wind Speed Wind Dir Waves Ship Positions

Kornett

Last reported at 2018-Jul-16 17:19 UTC. Time now 2018-Jul-16 19:49 UTC.
Position N 35°57' W 005°35'.

Length 135 m; draft 8.6 m.

Type: Ship (hazmat cat A). MMSI: 255805686.

Date/timePositionNaut miles runAvg speedWind from/ knotsBaromVisibWave heightAir tempDewpointWater temp
2018-Jul-16 17:19N 35°57' W 005°35'414.0
2018-Jul-16 17:00N 35°59' W 005°30'713.1
2018-Jul-16 16:29N 36°01' W 005°22'612.6
2018-Jul-16 16:00N 36°02' W 005°14'31112.6
2018-Jul-15 15:16N 39°11' W 000°02'1515.6
2018-Jul-15 14:17N 39°23' W 000°14'514.2
2018-Jul-15 13:58N 39°26' W 000°18'1 0.1
2018-Jul-15 08:11N 39°26' W 000°20'0 0.0
2018-Jul-15 07:56N 39°26' W 000°20'0 0.0
2018-Jul-15 06:35N 39°26' W 000°20'0 0.0
2018-Jul-15 06:11N 39°26' W 000°20'0 0.1
2018-Jul-15 05:58N 39°26' W 000°20'1 3.0
2018-Jul-15 05:29N 39°26' W 000°18'3 0.3
2018-Jul-14 21:52N 39°23' W 000°16'0 0.0
2018-Jul-14 13:37N 39°23' W 000°16'0 0.1
2018-Jul-14 13:25N 39°23' W 000°16'3 8.0
2018-Jul-14 13:00N 39°25' W 000°13'714.6
2018-Jul-14 12:29N 39°32' W 000°09'11114.9
2018-Jul-14 05:04N 40°55' E 001°28'216.6
2018-Jul-14 04:55N 40°56' E 001°31'716.5
2018-Jul-14 04:31N 40°60' E 001°38'816.6
2018-Jul-14 04:00N 41°04' E 001°48'816.8
2018-Jul-14 03:31N 41°09' E 001°57'816.9
2018-Jul-14 03:00N 41°14' E 002°06'612.1
2018-Jul-14 02:30N 41°19' E 002°10'1 2.1
2018-Jul-14 02:00N 41°18' E 002°09'0 0.0
2018-Jul-14 01:30N 41°18' E 002°09'0 0.0
2018-Jul-14 01:00N 41°18' E 002°09'0 0.0
2018-Jul-14 00:30N 41°18' E 002°09'0 0.0
2018-Jul-14 00:00N 41°18' E 002°09'0 0.0
2018-Jul-13 23:30N 41°18' E 002°09'0 0.0
2018-Jul-13 23:00N 41°18' E 002°09'0 0.0
2018-Jul-13 22:30N 41°18' E 002°09'0 0.0
2018-Jul-13 22:00N 41°18' E 002°09'0 0.0
2018-Jul-13 21:30N 41°18' E 002°09'0 0.0
2018-Jul-13 21:00N 41°18' E 002°09'0 0.0
2018-Jul-13 20:30N 41°18' E 002°09'0 0.0
2018-Jul-13 20:00N 41°18' E 002°09'0 0.0
2018-Jul-13 19:30N 41°18' E 002°09'0 0.0
2018-Jul-13 19:00N 41°18' E 002°09'0 0.0
2018-Jul-13 18:30N 41°18' E 002°09'0 0.0
2018-Jul-13 18:00N 41°18' E 002°09'0 0.0
2018-Jul-13 17:30N 41°18' E 002°09'0 0.0
2018-Jul-13 17:00N 41°18' E 002°09'0 0.0
2018-Jul-13 16:30N 41°18' E 002°09'0 0.0
2018-Jul-13 16:00N 41°18' E 002°09'0 0.0
2018-Jul-13 15:30N 41°18' E 002°09'0 0.0
2018-Jul-13 15:00N 41°18' E 002°09'0 0.0
2018-Jul-13 14:30N 41°18' E 002°09'0 0.0
2018-Jul-13 13:30N 41°18' E 002°09'0 0.0
2018-Jul-13 13:00N 41°18' E 002°09'0 0.0
2018-Jul-13 12:30N 41°18' E 002°09'0 0.0
2018-Jul-13 12:00N 41°18' E 002°09'0 0.0
2018-Jul-13 11:30N 41°18' E 002°09'0 0.0
2018-Jul-13 11:00N 41°18' E 002°09'1 1.3
2018-Jul-13 10:31N 41°19' E 002°09'2 3.0
2018-Jul-13 10:00N 41°19' E 002°11'0 0.1
2018-Jul-13 09:30N 41°19' E 002°11'0 0.1
2018-Jul-13 09:00N 41°19' E 002°11'0 0.0
2018-Jul-13 08:30N 41°19' E 002°11'0 0.0
2018-Jul-13 08:00N 41°19' E 002°11'0 0.0
2018-Jul-13 07:30N 41°19' E 002°11'0 0.0
2018-Jul-13 07:00N 41°19' E 002°11'0 0.0
2018-Jul-13 06:30N 41°19' E 002°11'0 0.0
2018-Jul-13 06:00N 41°19' E 002°11'0 0.0
2018-Jul-13 05:30N 41°19' E 002°11'0 0.0
2018-Jul-13 05:00N 41°19' E 002°11'0 0.0
2018-Jul-13 04:30N 41°19' E 002°11'0 0.0
2018-Jul-13 04:00N 41°19' E 002°11'0 0.0
2018-Jul-13 03:30N 41°19' E 002°11'0 0.0
2018-Jul-13 03:00N 41°19' E 002°11'0 0.0
2018-Jul-13 02:30N 41°19' E 002°11'0 0.0
2018-Jul-13 02:00N 41°19' E 002°11'0 0.0
2018-Jul-13 01:30N 41°19' E 002°11'0 0.0
2018-Jul-13 01:00N 41°19' E 002°11'0 0.0
2018-Jul-13 00:27N 41°19' E 002°11'0 0.0
2018-Jul-13 00:00N 41°19' E 002°11'0 0.0
2018-Jul-12 23:30N 41°19' E 002°11'0 0.0
2018-Jul-12 23:00N 41°19' E 002°11'0 0.0
2018-Jul-12 22:30N 41°19' E 002°11'0 0.0
2018-Jul-12 22:00N 41°19' E 002°11'0 0.0
2018-Jul-12 21:30N 41°19' E 002°11'0 0.0
2018-Jul-12 21:00N 41°19' E 002°11'0 0.0
2018-Jul-12 20:30N 41°19' E 002°11'0 0.1
2018-Jul-12 20:01N 41°19' E 002°11'2 4.7
2018-Jul-12 19:30N 41°17' E 002°11'714.0
2018-Jul-12 19:00N 41°14' E 002°03'816.5
2018-Jul-12 18:30N 41°11' E 001°53'816.6
2018-Jul-12 18:00N 41°09' E 001°42'816.6
2018-Jul-12 17:30N 41°07' E 001°31'119 8.1
2018-Jul-12 02:48N 39°34' W 000°07'515.7
2018-Jul-12 02:31N 39°30' W 000°10'714.9
2018-Jul-12 02:00N 39°25' W 000°18'1 2.0
2018-Jul-12 01:27N 39°26' W 000°19'0 0.0
2018-Jul-12 00:57N 39°26' W 000°19'0 0.0
2018-Jul-12 00:27N 39°26' W 000°19'0 0.0
2018-Jul-11 23:57N 39°26' W 000°19'0 0.0
2018-Jul-11 20:21N 39°26' W 000°19'0 0.0
2018-Jul-11 19:51N 39°26' W 000°19'0 0.0
2018-Jul-11 19:27N 39°26' W 000°19'0 0.0
2018-Jul-11 18:51N 39°26' W 000°19'0 0.0
2018-Jul-11 18:15N 39°26' W 000°19'0 0.0
2018-Jul-11 17:57N 39°26' W 000°19'0 0.0
2018-Jul-11 17:15N 39°26' W 000°19'0 0.0
2018-Jul-11 16:57N 39°26' W 000°19'0 0.0
2018-Jul-11 16:09N 39°26' W 000°19'0 0.0
2018-Jul-11 15:57N 39°26' W 000°19'0 0.0
2018-Jul-11 15:15N 39°26' W 000°19'0 0.0
2018-Jul-11 14:57N 39°26' W 000°19'0 0.0
2018-Jul-11 14:27N 39°26' W 000°19'0 0.0
2018-Jul-11 14:00N 39°26' W 000°19'0 0.0
2018-Jul-11 13:30N 39°26' W 000°19'0 0.0
2018-Jul-11 12:57N 39°26' W 000°19'0 0.0
2018-Jul-11 12:30N 39°26' W 000°19'0 0.0
2018-Jul-11 11:57N 39°26' W 000°19'0 0.0
2018-Jul-11 11:27N 39°26' W 000°19'0 0.0
2018-Jul-11 11:00N 39°26' W 000°19'0 0.2
2018-Jul-11 10:26N 39°26' W 000°19'1 3.0
2018-Jul-11 09:57N 39°25' W 000°17'2 0.1
2018-Jul-10 21:23N 39°24' W 000°16'4912.4
2018-Jul-10 17:25N 38°46' E 000°24'614.2
2018-Jul-10 17:00N 38°40' E 000°26'815.1
2018-Jul-10 16:28N 38°33' E 000°20'715.1
2018-Jul-10 15:59N 38°27' E 000°15'815.1
2018-Jul-10 15:28N 38°21' E 000°10'715.3
2018-Jul-10 15:00N 38°15' E 000°05'815.5
2018-Jul-10 14:29N 38°08' W 000°01'815.8
2018-Jul-10 13:58N 38°02' W 000°07'715.9
2018-Jul-10 13:30N 37°55' W 000°13'1215.6
2018-Jul-10 12:43N 37°45' W 000°22'415.4
2018-Jul-10 12:28N 37°42' W 000°24'715.3
2018-Jul-10 12:00N 37°36' W 000°29'815.3
2018-Jul-10 11:29N 37°30' W 000°35'815.5
2018-Jul-10 11:00N 37°25' W 000°42'815.2
2018-Jul-10 10:30N 37°20' W 000°49'715.0
2018-Jul-10 10:00N 37°15' W 000°56'815.3
2018-Jul-10 09:30N 37°10' W 001°03'815.2
2018-Jul-10 09:00N 37°05' W 001°11'1115.3
2018-Jul-10 08:19N 36°58' W 001°20'1015.1
2018-Jul-10 07:40N 36°51' W 001°30'1715.5
2018-Jul-10 06:33N 36°39' W 001°45'117.6
2018-Jul-10 06:30N 36°38' W 001°46'15816.1
2018-Jul-09 20:41N 36°03' W 004°57'317.4
2018-Jul-09 20:29N 36°02' W 005°01'917.7
2018-Jul-09 20:01N 36°01' W 005°12'917.8
2018-Jul-09 19:30N 35°59' W 005°22'70 3.9
2018-Jul-09 01:35N 36°07' W 006°48'213.1
2018-Jul-09 01:28N 36°05' W 006°50'713.2
2018-Jul-09 00:55N 35°60' W 006°55'613.0
2018-Jul-09 00:29N 35°55' W 006°59'613.0
2018-Jul-09 00:00N 35°50' W 007°04'613.0
2018-Jul-08 23:30N 35°45' W 007°09'713.2
2018-Jul-08 23:00N 35°40' W 007°14'2213.2
2018-Jul-08 21:22N 35°23' W 007°30'8514.0
2018-Jul-08 15:19N 34°16' W 008°33'414.2
2018-Jul-08 15:00N 34°12' W 008°37'25614.8
2018-Jul-07 21:47N 30°50' W 011°42'3114.5
2018-Jul-07 19:37N 30°25' W 012°03'515.0
2018-Jul-07 19:19N 30°21' W 012°07'515.0
2018-Jul-07 19:01N 30°17' W 012°10'815.1
2018-Jul-07 18:30N 30°11' W 012°15'815.3
2018-Jul-07 17:58N 30°05' W 012°21'4215.1
2018-Jul-07 15:12N 29°32' W 012°51'515.0
2018-Jul-07 14:52N 29°28' W 012°55'814.9
2018-Jul-07 14:19N 29°22' W 013°01'414.8
2018-Jul-07 14:00N 29°18' W 013°04'1514.6
2018-Jul-07 12:59N 29°07' W 013°15'714.7
2018-Jul-07 12:30N 29°02' W 013°21'714.6
2018-Jul-07 12:00N 28°58' W 013°28'3 2.5
2018-Jul-07 10:38N 28°58' W 013°32'0 0.0
2018-Jul-07 10:26N 28°58' W 013°32'0 0.0
2018-Jul-07 09:56N 28°58' W 013°32'0 0.0
2018-Jul-07 07:29N 28°58' W 013°32'0 0.0
2018-Jul-07 06:59N 28°58' W 013°32'0 0.0
2018-Jul-07 06:30N 28°58' W 013°32'1 2.5
2018-Jul-07 06:00N 28°57' W 013°32'815.2
2018-Jul-07 05:27N 28°50' W 013°37'715.3
2018-Jul-07 05:00N 28°44' W 013°42'2 0.8
2018-Jul-07 03:07N 28°44' W 013°40'0 1.8
2018-Jul-07 02:55N 28°45' W 013°40'4 2.0
2018-Jul-07 00:52N 28°47' W 013°36'1 2.3
2018-Jul-07 00:25N 28°48' W 013°35'1 2.3
2018-Jul-06 23:49N 28°48' W 013°34'1 2.3
2018-Jul-06 23:28N 28°49' W 013°33'1 2.3
2018-Jul-06 22:55N 28°50' W 013°32'2 2.2
2018-Jul-06 22:01N 28°51' W 013°30'4 1.9
2018-Jul-06 19:49N 28°54' W 013°27'411.0
2018-Jul-06 19:29N 28°52' W 013°31'713.9
2018-Jul-06 19:00N 28°48' W 013°37'714.5
2018-Jul-06 18:29N 28°42' W 013°40'714.2
2018-Jul-06 17:59N 28°35' W 013°44'714.1
2018-Jul-06 17:30N 28°30' W 013°49'  
Track history (hours):
 
Tides and Currents Weather Stations Pressure Air Temp Water Temp Dewpoint Dewpoint Depression Visibility Wind Speed Wind Dir Waves Ship Positions

Kornett

Last reported at 2018-Jul-16 17:19 UTC. Time now 2018-Jul-16 19:49 UTC.
Position N 35°57' W 005°35'.

Length 135 m; draft 8.6 m.

Type: Ship (hazmat cat A). MMSI: 255805686.

Date/timePositionNaut miles runAvg speedWind from/ knotsBaromVisibWave heightAir tempDewpointWater temp
2018-Jul-16 17:19N 35°57' W 005°35'414.0
2018-Jul-16 17:00N 35°59' W 005°30'713.1
2018-Jul-16 16:29N 36°01' W 005°22'612.6
2018-Jul-16 16:00N 36°02' W 005°14'31112.6
2018-Jul-15 15:16N 39°11' W 000°02'1515.6
2018-Jul-15 14:17N 39°23' W 000°14'514.2
2018-Jul-15 13:58N 39°26' W 000°18'1 0.1
2018-Jul-15 08:11N 39°26' W 000°20'0 0.0
2018-Jul-15 07:56N 39°26' W 000°20'0 0.0
2018-Jul-15 06:35N 39°26' W 000°20'0 0.0
2018-Jul-15 06:11N 39°26' W 000°20'0 0.1
2018-Jul-15 05:58N 39°26' W 000°20'1 3.0
2018-Jul-15 05:29N 39°26' W 000°18'3 0.3
2018-Jul-14 21:52N 39°23' W 000°16'0 0.0
2018-Jul-14 13:37N 39°23' W 000°16'0 0.1
2018-Jul-14 13:25N 39°23' W 000°16'3 8.0
2018-Jul-14 13:00N 39°25' W 000°13'714.6
2018-Jul-14 12:29N 39°32' W 000°09'11114.9
2018-Jul-14 05:04N 40°55' E 001°28'216.6
2018-Jul-14 04:55N 40°56' E 001°31'716.5
2018-Jul-14 04:31N 40°60' E 001°38'816.6
2018-Jul-14 04:00N 41°04' E 001°48'816.8
2018-Jul-14 03:31N 41°09' E 001°57'816.9
2018-Jul-14 03:00N 41°14' E 002°06'612.1
2018-Jul-14 02:30N 41°19' E 002°10'1 2.1
2018-Jul-14 02:00N 41°18' E 002°09'0 0.0
2018-Jul-14 01:30N 41°18' E 002°09'0 0.0
2018-Jul-14 01:00N 41°18' E 002°09'0 0.0
2018-Jul-14 00:30N 41°18' E 002°09'0 0.0
2018-Jul-14 00:00N 41°18' E 002°09'0 0.0
2018-Jul-13 23:30N 41°18' E 002°09'0 0.0
2018-Jul-13 23:00N 41°18' E 002°09'0 0.0
2018-Jul-13 22:30N 41°18' E 002°09'0 0.0
2018-Jul-13 22:00N 41°18' E 002°09'0 0.0
2018-Jul-13 21:30N 41°18' E 002°09'0 0.0
2018-Jul-13 21:00N 41°18' E 002°09'0 0.0
2018-Jul-13 20:30N 41°18' E 002°09'0 0.0
2018-Jul-13 20:00N 41°18' E 002°09'0 0.0
2018-Jul-13 19:30N 41°18' E 002°09'0 0.0
2018-Jul-13 19:00N 41°18' E 002°09'0 0.0
2018-Jul-13 18:30N 41°18' E 002°09'0 0.0
2018-Jul-13 18:00N 41°18' E 002°09'0 0.0
2018-Jul-13 17:30N 41°18' E 002°09'0 0.0
2018-Jul-13 17:00N 41°18' E 002°09'0 0.0
2018-Jul-13 16:30N 41°18' E 002°09'0 0.0
2018-Jul-13 16:00N 41°18' E 002°09'0 0.0
2018-Jul-13 15:30N 41°18' E 002°09'0 0.0
2018-Jul-13 15:00N 41°18' E 002°09'0 0.0
2018-Jul-13 14:30N 41°18' E 002°09'0 0.0
2018-Jul-13 13:30N 41°18' E 002°09'0 0.0
2018-Jul-13 13:00N 41°18' E 002°09'0 0.0
2018-Jul-13 12:30N 41°18' E 002°09'0 0.0
2018-Jul-13 12:00N 41°18' E 002°09'0 0.0
2018-Jul-13 11:30N 41°18' E 002°09'0 0.0
2018-Jul-13 11:00N 41°18' E 002°09'1 1.3
2018-Jul-13 10:31N 41°19' E 002°09'2 3.0
2018-Jul-13 10:00N 41°19' E 002°11'0 0.1
2018-Jul-13 09:30N 41°19' E 002°11'0 0.1
2018-Jul-13 09:00N 41°19' E 002°11'0 0.0
2018-Jul-13 08:30N 41°19' E 002°11'0 0.0
2018-Jul-13 08:00N 41°19' E 002°11'0 0.0
2018-Jul-13 07:30N 41°19' E 002°11'0 0.0
2018-Jul-13 07:00N 41°19' E 002°11'0 0.0
2018-Jul-13 06:30N 41°19' E 002°11'0 0.0
2018-Jul-13 06:00N 41°19' E 002°11'0 0.0
2018-Jul-13 05:30N 41°19' E 002°11'0 0.0
2018-Jul-13 05:00N 41°19' E 002°11'0 0.0
2018-Jul-13 04:30N 41°19' E 002°11'0 0.0
2018-Jul-13 04:00N 41°19' E 002°11'0 0.0
2018-Jul-13 03:30N 41°19' E 002°11'0 0.0
2018-Jul-13 03:00N 41°19' E 002°11'0 0.0
2018-Jul-13 02:30N 41°19' E 002°11'0 0.0
2018-Jul-13 02:00N 41°19' E 002°11'0 0.0
2018-Jul-13 01:30N 41°19' E 002°11'0 0.0
2018-Jul-13 01:00N 41°19' E 002°11'0 0.0
2018-Jul-13 00:27N 41°19' E 002°11'0 0.0
2018-Jul-13 00:00N 41°19' E 002°11'0 0.0
2018-Jul-12 23:30N 41°19' E 002°11'0 0.0
2018-Jul-12 23:00N 41°19' E 002°11'0 0.0
2018-Jul-12 22:30N 41°19' E 002°11'0 0.0
2018-Jul-12 22:00N 41°19' E 002°11'0 0.0
2018-Jul-12 21:30N 41°19' E 002°11'0 0.0
2018-Jul-12 21:00N 41°19' E 002°11'0 0.0
2018-Jul-12 20:30N 41°19' E 002°11'0 0.1
2018-Jul-12 20:01N 41°19' E 002°11'2 4.7
2018-Jul-12 19:30N 41°17' E 002°11'714.0
2018-Jul-12 19:00N 41°14' E 002°03'816.5
2018-Jul-12 18:30N 41°11' E 001°53'816.6
2018-Jul-12 18:00N 41°09' E 001°42'816.6
2018-Jul-12 17:30N 41°07' E 001°31'119 8.1
2018-Jul-12 02:48N 39°34' W 000°07'515.7
2018-Jul-12 02:31N 39°30' W 000°10'714.9
2018-Jul-12 02:00N 39°25' W 000°18'1 2.0
2018-Jul-12 01:27N 39°26' W 000°19'0 0.0
2018-Jul-12 00:57N 39°26' W 000°19'0 0.0
2018-Jul-12 00:27N 39°26' W 000°19'0 0.0
2018-Jul-11 23:57N 39°26' W 000°19'0 0.0
2018-Jul-11 20:21N 39°26' W 000°19'0 0.0
2018-Jul-11 19:51N 39°26' W 000°19'0 0.0
2018-Jul-11 19:27N 39°26' W 000°19'0 0.0
2018-Jul-11 18:51N 39°26' W 000°19'0 0.0
2018-Jul-11 18:15N 39°26' W 000°19'0 0.0
2018-Jul-11 17:57N 39°26' W 000°19'0 0.0
2018-Jul-11 17:15N 39°26' W 000°19'0 0.0
2018-Jul-11 16:57N 39°26' W 000°19'0 0.0
2018-Jul-11 16:09N 39°26' W 000°19'0 0.0
2018-Jul-11 15:57N 39°26' W 000°19'0 0.0
2018-Jul-11 15:15N 39°26' W 000°19'0 0.0
2018-Jul-11 14:57N 39°26' W 000°19'0 0.0
2018-Jul-11 14:27N 39°26' W 000°19'0 0.0
2018-Jul-11 14:00N 39°26' W 000°19'0 0.0
2018-Jul-11 13:30N 39°26' W 000°19'0 0.0
2018-Jul-11 12:57N 39°26' W 000°19'0 0.0
2018-Jul-11 12:30N 39°26' W 000°19'0 0.0
2018-Jul-11 11:57N 39°26' W 000°19'0 0.0
2018-Jul-11 11:27N 39°26' W 000°19'0 0.0
2018-Jul-11 11:00N 39°26' W 000°19'0 0.2
2018-Jul-11 10:26N 39°26' W 000°19'1 3.0
2018-Jul-11 09:57N 39°25' W 000°17'2 0.1
2018-Jul-10 21:23N 39°24' W 000°16'4912.4
2018-Jul-10 17:25N 38°46' E 000°24'614.2
2018-Jul-10 17:00N 38°40' E 000°26'815.1
2018-Jul-10 16:28N 38°33' E 000°20'715.1
2018-Jul-10 15:59N 38°27' E 000°15'815.1
2018-Jul-10 15:28N 38°21' E 000°10'715.3
2018-Jul-10 15:00N 38°15' E 000°05'815.5
2018-Jul-10 14:29N 38°08' W 000°01'815.8
2018-Jul-10 13:58N 38°02' W 000°07'715.9
2018-Jul-10 13:30N 37°55' W 000°13'1215.6
2018-Jul-10 12:43N 37°45' W 000°22'415.4
2018-Jul-10 12:28N 37°42' W 000°24'715.3
2018-Jul-10 12:00N 37°36' W 000°29'815.3
2018-Jul-10 11:29N 37°30' W 000°35'815.5
2018-Jul-10 11:00N 37°25' W 000°42'815.2
2018-Jul-10 10:30N 37°20' W 000°49'715.0
2018-Jul-10 10:00N 37°15' W 000°56'815.3
2018-Jul-10 09:30N 37°10' W 001°03'815.2
2018-Jul-10 09:00N 37°05' W 001°11'1115.3
2018-Jul-10 08:19N 36°58' W 001°20'1015.1
2018-Jul-10 07:40N 36°51' W 001°30'1715.5
2018-Jul-10 06:33N 36°39' W 001°45'117.6
2018-Jul-10 06:30N 36°38' W 001°46'15816.1
2018-Jul-09 20:41N 36°03' W 004°57'317.4
2018-Jul-09 20:29N 36°02' W 005°01'917.7
2018-Jul-09 20:01N 36°01' W 005°12'917.8
2018-Jul-09 19:30N 35°59' W 005°22'70 3.9
2018-Jul-09 01:35N 36°07' W 006°48'213.1
2018-Jul-09 01:28N 36°05' W 006°50'713.2
2018-Jul-09 00:55N 35°60' W 006°55'613.0
2018-Jul-09 00:29N 35°55' W 006°59'613.0
2018-Jul-09 00:00N 35°50' W 007°04'613.0
2018-Jul-08 23:30N 35°45' W 007°09'713.2
2018-Jul-08 23:00N 35°40' W 007°14'2213.2
2018-Jul-08 21:22N 35°23' W 007°30'8514.0
2018-Jul-08 15:19N 34°16' W 008°33'414.2
2018-Jul-08 15:00N 34°12' W 008°37'25614.8
2018-Jul-07 21:47N 30°50' W 011°42'3114.5
2018-Jul-07 19:37N 30°25' W 012°03'515.0
2018-Jul-07 19:19N 30°21' W 012°07'515.0
2018-Jul-07 19:01N 30°17' W 012°10'815.1
2018-Jul-07 18:30N 30°11' W 012°15'815.3
2018-Jul-07 17:58N 30°05' W 012°21'4215.1
2018-Jul-07 15:12N 29°32' W 012°51'515.0
2018-Jul-07 14:52N 29°28' W 012°55'814.9
2018-Jul-07 14:19N 29°22' W 013°01'414.8
2018-Jul-07 14:00N 29°18' W 013°04'1514.6
2018-Jul-07 12:59N 29°07' W 013°15'714.7
2018-Jul-07 12:30N 29°02' W 013°21'714.6
2018-Jul-07 12:00N 28°58' W 013°28'3 2.5
2018-Jul-07 10:38N 28°58' W 013°32'0 0.0
2018-Jul-07 10:26N 28°58' W 013°32'0 0.0
2018-Jul-07 09:56N 28°58' W 013°32'0 0.0
2018-Jul-07 07:29N 28°58' W 013°32'0 0.0
2018-Jul-07 06:59N 28°58' W 013°32'0 0.0
2018-Jul-07 06:30N 28°58' W 013°32'1 2.5
2018-Jul-07 06:00N 28°57' W 013°32'815.2
2018-Jul-07 05:27N 28°50' W 013°37'715.3
2018-Jul-07 05:00N 28°44' W 013°42'2 0.8
2018-Jul-07 03:07N 28°44' W 013°40'0 1.8
2018-Jul-07 02:55N 28°45' W 013°40'4 2.0
2018-Jul-07 00:52N 28°47' W 013°36'1 2.3
2018-Jul-07 00:25N 28°48' W 013°35'1 2.3
2018-Jul-06 23:49N 28°48' W 013°34'1 2.3
2018-Jul-06 23:28N 28°49' W 013°33'1 2.3
2018-Jul-06 22:55N 28°50' W 013°32'2 2.2
2018-Jul-06 22:01N 28°51' W 013°30'4 1.9
2018-Jul-06 19:49N 28°54' W 013°27'411.0
2018-Jul-06 19:29N 28°52' W 013°31'713.9
2018-Jul-06 19:00N 28°48' W 013°37'714.5
2018-Jul-06 18:29N 28°42' W 013°40'714.2
2018-Jul-06 17:59N 28°35' W 013°44'714.1
2018-Jul-06 17:30N 28°30' W 013°49'  

Dump ship's entire track history